PAVC

Details ICAO PAVC (KVC)
Name KING COVE
Region USA (Alaska)
Timezone America/Nome (UTC-8.0)
Plans Departing 2
Arriving 4
Stats Elevation 155 ft / 47 m (AMSL)
Location 55.116300° -162.266000°
Runways 1
Magnetic Variation 10.748° E
Sunrise 2018-10-21 17:32:19 UTC / 2018-10-21 09:32:19 Local
Sunset 2018-10-22 03:37:16 UTC / 2018-10-21 19:37:16 Local
Advertisement - Login to hide

Runways

ID Width Length Bearing (true/mag) Surface Threshold Overrun Markings Lighting
07 115 ft / 35 m 3,350 ft / 1,021 m 84.99° / 74.25° GRAVEL 0 ft / 0 m 0 ft / 0 m VISUAL
25 115 ft / 35 m 3,350 ft / 1,021 m 265.01° / 254.26° GRAVEL 0 ft / 0 m 0 ft / 0 m VISUAL

Map

Weather


0- 5 10 15 20 25 30 35+ Temperature / °C

Clouds and Precipitation
Forecast for 2018-10-22 00:00 UTC. Updated 4 hours ago

Ground ~20,000 ft ~40,000 ft Winds

METAR

PAVC 220056Z AUTO 28009G18KT 7SM -RA OVC024 08/05 A2914 RMK AO2 SLP872 P0001 T00780050

TAF

Not found

Frequencies

Recorded 118.32 MHz ASOS
Unicom 122.90 MHz CTAF
Warning: Do not use this data for real-world aviation or navigation. No guarantee of current accuracy is given.